createdAt,value
2022-08-30T00:00:16.113Z,16.70
2022-08-30T00:03:03.810Z,16.90
2022-08-30T00:05:31.440Z,16.70
2022-08-30T00:07:59.336Z,16.70
2022-08-30T00:10:29.483Z,16.70
2022-08-30T00:12:59.619Z,16.70
2022-08-30T00:15:27.711Z,16.70
2022-08-30T00:17:55.990Z,16.70
2022-08-30T00:20:31.015Z,16.70
2022-08-30T00:22:58.641Z,17.60
2022-08-30T00:25:26.635Z,16.70
2022-08-30T00:27:54.261Z,16.70
2022-08-30T00:30:22.427Z,16.80
2022-08-30T00:32:50.188Z,16.80
2022-08-30T00:35:20.668Z,16.80
2022-08-30T00:37:49.112Z,16.70
2022-08-30T00:40:18.165Z,16.80
2022-08-30T00:42:50.693Z,16.70
2022-08-30T00:45:24.500Z,16.70
2022-08-30T00:47:52.553Z,16.60
2022-08-30T00:50:24.154Z,16.80
2022-08-30T00:52:54.967Z,16.80
2022-08-30T00:55:22.940Z,16.80
2022-08-30T00:57:55.948Z,16.80
2022-08-30T01:00:23.586Z,16.80
2022-08-30T01:02:51.725Z,16.70
2022-08-30T01:05:21.714Z,16.80
2022-08-30T01:07:49.822Z,16.80
2022-08-30T01:10:17.751Z,16.80
2022-08-30T01:12:47.008Z,16.80
2022-08-30T01:15:15.967Z,16.80
2022-08-30T01:17:45.542Z,16.80
2022-08-30T01:20:20.659Z,16.80
2022-08-30T01:22:51.140Z,16.80
2022-08-30T01:25:25.274Z,16.80
2022-08-30T01:28:01.812Z,16.80
2022-08-30T01:30:31.419Z,16.80
2022-08-30T01:33:03.377Z,16.80
2022-08-30T01:35:39.085Z,16.80
2022-08-30T01:38:06.770Z,16.80
2022-08-30T01:40:34.108Z,16.80
2022-08-30T01:43:01.561Z,16.80
2022-08-30T01:45:29.157Z,16.80
2022-08-30T01:47:56.542Z,16.70
2022-08-30T01:50:27.245Z,16.70
2022-08-30T01:52:55.098Z,16.80
2022-08-30T01:55:23.346Z,16.70
2022-08-30T01:57:50.745Z,16.70
2022-08-30T02:00:18.959Z,16.70
2022-08-30T02:02:46.339Z,16.70
2022-08-30T02:05:13.673Z,16.70
2022-08-30T02:07:41.190Z,16.70
2022-08-30T02:10:08.793Z,16.70
2022-08-30T02:12:36.433Z,16.70
2022-08-30T02:15:04.249Z,16.70
2022-08-30T02:17:31.556Z,16.70
2022-08-30T02:19:58.917Z,16.70
2022-08-30T02:22:26.551Z,16.70
2022-08-30T02:24:53.842Z,16.60
2022-08-30T02:27:21.308Z,16.60
2022-08-30T02:29:48.809Z,16.60
2022-08-30T02:32:16.153Z,16.60
2022-08-30T02:34:44.785Z,16.60
2022-08-30T02:37:12.326Z,16.60
2022-08-30T02:39:39.538Z,16.60
2022-08-30T02:42:07.021Z,16.60
2022-08-30T02:44:34.484Z,16.70
2022-08-30T02:47:02.000Z,16.70
2022-08-30T02:49:33.499Z,16.70
2022-08-30T02:52:04.306Z,16.70
2022-08-30T02:54:33.521Z,16.60
2022-08-30T02:57:05.212Z,16.70
2022-08-30T02:59:33.565Z,16.90
2022-08-30T03:02:00.940Z,16.50
2022-08-30T03:04:28.512Z,16.40
2022-08-30T03:06:56.108Z,16.40
2022-08-30T03:09:23.869Z,17.40
2022-08-30T03:11:51.301Z,16.40
2022-08-30T03:14:19.003Z,17.30
2022-08-30T03:16:46.349Z,16.20
2022-08-30T03:19:13.684Z,16.10
2022-08-30T03:21:41.291Z,16.10
2022-08-30T03:24:08.712Z,16.00
2022-08-30T03:26:36.440Z,15.90
2022-08-30T03:29:04.219Z,15.80
2022-08-30T03:31:31.597Z,15.90
2022-08-30T03:34:05.788Z,15.70
2022-08-30T03:36:33.483Z,15.70
2022-08-30T03:39:00.986Z,15.70
2022-08-30T03:41:28.684Z,15.70
2022-08-30T03:44:00.239Z,15.80
2022-08-30T03:46:29.199Z,15.80
2022-08-30T03:48:56.814Z,15.80
2022-08-30T03:51:25.248Z,15.90
2022-08-30T03:53:52.840Z,15.90
2022-08-30T03:56:21.162Z,16.00
2022-08-30T03:58:48.568Z,16.00
2022-08-30T04:01:16.081Z,16.00
2022-08-30T04:03:43.940Z,16.00
2022-08-30T04:06:11.889Z,16.00
2022-08-30T04:08:39.490Z,16.00
2022-08-30T04:11:08.294Z,16.10
2022-08-30T04:13:35.935Z,16.10
2022-08-30T04:16:03.708Z,16.20
2022-08-30T04:18:31.298Z,16.20
2022-08-30T04:20:58.774Z,16.20
2022-08-30T04:23:26.073Z,17.00
2022-08-30T04:25:53.745Z,16.40
2022-08-30T04:28:21.337Z,16.40
2022-08-30T04:30:49.004Z,17.30
2022-08-30T04:33:17.596Z,16.40
2022-08-30T04:35:49.365Z,16.50
2022-08-30T04:38:17.712Z,16.40
2022-08-30T04:40:48.681Z,16.50
2022-08-30T04:43:16.928Z,16.50
2022-08-30T04:45:44.860Z,16.60
2022-08-30T04:48:12.416Z,16.70
2022-08-30T04:50:39.890Z,16.60
2022-08-30T04:53:13.733Z,16.70
2022-08-30T04:55:43.523Z,16.80
2022-08-30T04:58:11.746Z,16.80
2022-08-30T05:00:42.284Z,16.80
2022-08-30T05:03:10.048Z,16.90
2022-08-30T05:05:40.135Z,16.90
2022-08-30T05:08:15.338Z,16.90
2022-08-30T05:10:46.786Z,16.90
2022-08-30T05:13:16.477Z,17.00
2022-08-30T05:15:44.802Z,17.00
2022-08-30T05:18:14.095Z,17.00
2022-08-30T05:20:43.195Z,17.00
2022-08-30T05:23:11.550Z,17.00
2022-08-30T05:25:41.526Z,17.20
2022-08-30T05:28:09.375Z,17.10
2022-08-30T05:30:37.558Z,17.20
2022-08-30T05:33:04.898Z,17.30
2022-08-30T05:35:32.911Z,17.30
2022-08-30T05:38:01.047Z,17.40
2022-08-30T05:40:29.197Z,17.50
2022-08-30T05:42:56.746Z,17.50
2022-08-30T05:45:24.362Z,17.60
2022-08-30T05:47:51.620Z,18.40
2022-08-30T05:50:18.855Z,17.80
2022-08-30T05:52:46.275Z,17.80
2022-08-30T05:55:13.613Z,17.80
2022-08-30T05:57:41.817Z,17.80
2022-08-30T06:00:13.796Z,17.70
2022-08-30T06:02:42.697Z,17.80
2022-08-30T06:05:11.312Z,17.80
2022-08-30T06:07:43.678Z,17.80
2022-08-30T06:10:12.621Z,17.90
2022-08-30T06:12:39.996Z,17.90
2022-08-30T06:15:08.306Z,17.90
2022-08-30T06:17:35.913Z,18.00
2022-08-30T06:20:03.462Z,18.10
2022-08-30T06:22:30.870Z,18.30
2022-08-30T06:24:58.389Z,18.40
2022-08-30T06:27:25.749Z,18.40
2022-08-30T06:29:53.841Z,18.40
2022-08-30T06:32:22.323Z,18.60
2022-08-30T06:34:50.220Z,18.70
2022-08-30T06:37:29.025Z,18.70
2022-08-30T06:39:58.746Z,18.70
2022-08-30T06:42:32.334Z,18.70
2022-08-30T06:45:10.840Z,18.80
2022-08-30T06:47:40.686Z,18.80
2022-08-30T06:50:11.117Z,18.70
2022-08-30T06:52:42.909Z,18.80
2022-08-30T06:55:11.884Z,19.00
2022-08-30T06:57:39.380Z,19.00
2022-08-30T07:00:09.610Z,19.10
2022-08-30T07:02:38.039Z,19.10
2022-08-30T07:05:06.752Z,19.10
2022-08-30T07:07:35.162Z,19.20
2022-08-30T07:10:07.790Z,19.30
2022-08-30T07:12:36.213Z,19.40
2022-08-30T07:15:05.723Z,19.70
2022-08-30T07:17:52.971Z,19.90
2022-08-30T07:20:21.727Z,20.00
2022-08-30T07:22:49.353Z,20.00
2022-08-30T07:25:16.925Z,19.90
2022-08-30T07:27:47.711Z,19.90
2022-08-30T07:30:15.068Z,19.60
2022-08-30T07:32:42.353Z,19.40
2022-08-30T07:35:10.042Z,19.40
2022-08-30T07:37:37.266Z,19.50
2022-08-30T07:40:05.202Z,19.30
2022-08-30T07:42:32.709Z,19.40
2022-08-30T07:45:00.148Z,19.40
2022-08-30T07:47:27.293Z,19.60
2022-08-30T07:49:54.843Z,19.70
2022-08-30T07:52:22.214Z,19.90
2022-08-30T07:54:52.793Z,20.00
2022-08-30T07:57:20.509Z,19.80
2022-08-30T07:59:47.781Z,19.90
2022-08-30T08:02:15.681Z,19.90
2022-08-30T08:04:44.143Z,20.00
2022-08-30T08:07:12.092Z,20.00
2022-08-30T08:09:40.116Z,20.00
2022-08-30T08:12:09.563Z,20.00
2022-08-30T08:14:37.297Z,20.10
2022-08-30T08:17:05.176Z,20.50
2022-08-30T08:19:32.831Z,19.90
2022-08-30T08:22:21.093Z,19.90
2022-08-30T08:24:56.223Z,20.20
2022-08-30T08:27:24.890Z,20.10
2022-08-30T08:29:52.303Z,20.30
2022-08-30T08:32:20.371Z,20.20
2022-08-30T08:34:47.907Z,21.30
2022-08-30T08:37:15.511Z,23.10
2022-08-30T08:39:43.352Z,24.60
2022-08-30T08:42:32.098Z,25.00
2022-08-30T08:45:14.357Z,25.00
2022-08-30T08:47:52.395Z,24.80
2022-08-30T08:50:21.325Z,24.30
2022-08-30T08:53:13.346Z,23.70
2022-08-30T08:55:49.714Z,23.50
2022-08-30T08:58:27.002Z,23.30
2022-08-30T09:00:56.865Z,23.20
2022-08-30T09:03:27.487Z,23.10
2022-08-30T09:05:55.764Z,23.20
2022-08-30T09:08:24.430Z,23.70
2022-08-30T09:11:01.921Z,24.10
2022-08-30T09:13:30.293Z,24.40
2022-08-30T09:16:00.001Z,25.10
2022-08-30T09:18:57.071Z,25.00
2022-08-30T09:21:28.223Z,24.80
2022-08-30T09:24:01.764Z,24.20
2022-08-30T09:26:35.949Z,23.60
2022-08-30T09:29:16.256Z,23.10
2022-08-30T09:32:01.322Z,22.50
2022-08-30T09:34:39.058Z,22.20
2022-08-30T09:37:34.551Z,22.10
2022-08-30T09:40:09.291Z,21.90
2022-08-30T09:42:39.869Z,21.90
2022-08-30T09:45:20.598Z,23.90
2022-08-30T09:52:55.576Z,26.20
2022-08-30T09:55:48.618Z,25.00
2022-08-30T10:01:40.770Z,23.50
2022-08-30T10:04:15.778Z,23.20
2022-08-30T10:07:17.817Z,23.20
2022-08-30T10:10:03.044Z,23.40
2022-08-30T10:12:59.398Z,23.90
2022-08-30T10:15:45.365Z,25.30
2022-08-30T10:18:35.565Z,25.50
2022-08-30T10:24:23.676Z,24.70
2022-08-30T10:27:23.256Z,24.10
2022-08-30T10:30:02.466Z,24.00
2022-08-30T10:32:55.140Z,23.90
2022-08-30T10:35:38.531Z,23.60
2022-08-30T10:38:17.407Z,23.40
2022-08-30T10:41:09.584Z,23.50
2022-08-30T10:43:50.903Z,23.60
2022-08-30T10:47:01.423Z,23.50
2022-08-30T10:49:40.683Z,23.80
2022-08-30T10:52:31.400Z,26.00
2022-08-30T10:55:40.527Z,26.10
2022-08-30T10:58:15.954Z,26.40
2022-08-30T11:01:06.507Z,25.80
2022-08-30T11:04:09.002Z,25.30
2022-08-30T11:07:22.230Z,24.80
2022-08-30T11:10:27.856Z,24.30
2022-08-30T11:13:07.024Z,24.10
2022-08-30T11:15:52.876Z,24.20
2022-08-30T11:18:28.015Z,24.40
2022-08-30T11:21:36.306Z,24.40
2022-08-30T11:24:22.003Z,24.60
2022-08-30T11:27:01.001Z,25.00
2022-08-30T11:29:34.319Z,25.70
2022-08-30T11:32:19.187Z,26.00
2022-08-30T11:34:47.136Z,25.70
2022-08-30T11:37:46.512Z,25.50
2022-08-30T11:40:24.206Z,25.70
2022-08-30T11:43:40.373Z,26.90
2022-08-30T11:46:41.190Z,26.60
2022-08-30T11:49:28.425Z,26.20
2022-08-30T11:52:27.231Z,25.70
2022-08-30T11:55:27.203Z,26.00
2022-08-30T11:58:01.291Z,26.20
2022-08-30T12:00:31.602Z,26.00
2022-08-30T12:03:08.878Z,26.10
2022-08-30T12:05:43.141Z,26.40
2022-08-30T12:08:20.896Z,26.60
2022-08-30T12:11:09.314Z,28.10
2022-08-30T12:13:45.071Z,29.60
2022-08-30T12:16:40.239Z,31.10
2022-08-30T12:19:21.726Z,31.70
2022-08-30T12:22:02.020Z,32.60
2022-08-30T12:24:44.150Z,32.80
2022-08-30T12:27:33.328Z,32.80
2022-08-30T12:30:08.577Z,33.40
2022-08-30T12:32:47.608Z,33.70
2022-08-30T12:35:23.549Z,33.70
2022-08-30T12:38:06.061Z,33.60
2022-08-30T12:40:37.478Z,34.20
2022-08-30T12:43:17.534Z,33.90
2022-08-30T12:45:50.961Z,33.90
2022-08-30T12:48:20.403Z,34.30
2022-08-30T12:50:56.089Z,33.60
2022-08-30T12:53:31.456Z,33.60
2022-08-30T12:56:06.875Z,33.60
2022-08-30T12:58:43.581Z,33.00
2022-08-30T13:01:15.649Z,33.20
2022-08-30T13:03:59.808Z,32.70
2022-08-30T13:06:51.307Z,32.90
2022-08-30T13:09:32.428Z,32.90
2022-08-30T13:12:02.623Z,33.20
2022-08-30T13:14:42.420Z,31.80
2022-08-30T13:17:20.405Z,30.50
2022-08-30T13:20:00.239Z,30.20
2022-08-30T13:22:30.967Z,30.90
2022-08-30T13:24:58.954Z,31.00
2022-08-30T13:27:27.995Z,31.80
2022-08-30T13:29:56.148Z,32.10
2022-08-30T13:32:25.015Z,32.40
2022-08-30T13:34:53.456Z,32.50
2022-08-30T13:40:15.842Z,32.30
2022-08-30T13:42:44.880Z,32.30
2022-08-30T13:49:05.586Z,30.20
2022-08-30T13:51:35.734Z,29.00
2022-08-30T13:54:05.094Z,29.20
2022-08-30T13:56:34.072Z,29.70
2022-08-30T13:59:04.323Z,30.30
2022-08-30T14:02:07.610Z,30.80
2022-08-30T14:04:21.753Z,31.30
2022-08-30T14:09:38.379Z,31.70
2022-08-30T14:12:06.368Z,32.30
2022-08-30T14:14:42.553Z,31.40
2022-08-30T14:17:12.565Z,31.40
2022-08-30T14:19:40.364Z,31.10
2022-08-30T14:22:07.762Z,31.40
2022-08-30T14:24:36.961Z,31.50
2022-08-30T14:27:04.454Z,31.40
2022-08-30T14:29:32.192Z,31.30
2022-08-30T14:32:00.696Z,31.70
2022-08-30T14:34:29.034Z,31.80
2022-08-30T14:36:56.598Z,31.80
2022-08-30T14:39:26.315Z,31.70
2022-08-30T14:41:55.783Z,31.80
2022-08-30T14:44:24.592Z,30.80
2022-08-30T14:46:53.876Z,30.00
2022-08-30T14:49:22.156Z,29.20
2022-08-30T14:51:51.250Z,28.40
2022-08-30T14:54:22.512Z,27.90
2022-08-30T14:56:53.607Z,27.40
2022-08-30T14:59:22.427Z,26.90
2022-08-30T15:01:49.987Z,26.50
2022-08-30T15:04:18.777Z,26.00
2022-08-30T15:06:51.124Z,25.80
2022-08-30T15:09:23.790Z,25.30
2022-08-30T15:11:55.148Z,24.90
2022-08-30T15:14:24.867Z,24.70
2022-08-30T15:16:54.724Z,24.40
2022-08-30T15:19:22.628Z,24.30
2022-08-30T15:21:51.040Z,24.00
2022-08-30T15:24:29.623Z,23.90
2022-08-30T15:26:59.779Z,23.90
2022-08-30T15:29:31.655Z,23.70
2022-08-30T15:32:00.986Z,23.50
2022-08-30T15:34:30.041Z,23.50
2022-08-30T15:36:59.070Z,23.30
2022-08-30T15:39:27.693Z,23.00
2022-08-30T15:42:00.712Z,23.00
2022-08-30T15:44:32.557Z,22.90
2022-08-30T15:47:02.617Z,22.70
2022-08-30T15:49:32.491Z,22.50
2022-08-30T15:52:05.533Z,22.20
2022-08-30T15:54:35.734Z,22.10
2022-08-30T15:57:05.707Z,21.90
2022-08-30T15:59:33.652Z,21.80
2022-08-30T16:02:02.627Z,21.70
2022-08-30T16:04:30.916Z,21.60
2022-08-30T16:06:58.507Z,21.40
2022-08-30T16:09:32.285Z,21.50
2022-08-30T16:12:01.629Z,21.40
2022-08-30T16:14:30.080Z,21.30
2022-08-30T16:16:58.058Z,21.30
2022-08-30T16:19:26.639Z,21.10
2022-08-30T16:21:54.255Z,20.90
2022-08-30T16:24:23.598Z,21.00
2022-08-30T16:26:50.984Z,20.90
2022-08-30T16:29:18.660Z,20.80
2022-08-30T16:31:50.622Z,20.80
2022-08-30T16:34:20.385Z,20.70
2022-08-30T16:36:49.227Z,20.70
2022-08-30T16:39:17.394Z,20.60
2022-08-30T16:41:46.849Z,20.60
2022-08-30T16:44:18.559Z,20.60
2022-08-30T16:46:53.628Z,20.60
2022-08-30T16:49:23.284Z,20.50
2022-08-30T16:51:53.611Z,20.40
2022-08-30T16:54:22.583Z,20.40
2022-08-30T16:56:50.507Z,20.30
2022-08-30T16:59:18.962Z,20.20
2022-08-30T17:01:46.646Z,20.10
2022-08-30T17:04:19.447Z,20.10
2022-08-30T17:06:51.254Z,20.00
2022-08-30T17:09:20.681Z,19.90
2022-08-30T17:11:50.236Z,19.80
2022-08-30T17:14:27.448Z,19.80
2022-08-30T17:16:57.256Z,19.70
2022-08-30T17:19:26.278Z,19.70
2022-08-30T17:21:54.745Z,19.70
2022-08-30T17:24:22.553Z,19.60
2022-08-30T17:26:52.054Z,19.60
2022-08-30T17:29:19.414Z,19.60
2022-08-30T17:31:51.325Z,19.50
2022-08-30T17:34:23.038Z,19.40
2022-08-30T17:36:52.849Z,19.30
2022-08-30T17:39:23.630Z,19.30
2022-08-30T17:41:52.881Z,19.30
2022-08-30T17:44:25.798Z,19.20
2022-08-30T17:46:55.304Z,19.20
2022-08-30T17:49:24.545Z,19.00
2022-08-30T17:51:56.674Z,19.00
2022-08-30T17:58:57.856Z,18.80
2022-08-30T18:01:25.788Z,18.80
2022-08-30T18:08:44.519Z,18.50
2022-08-30T18:11:15.233Z,18.50
2022-08-30T18:13:47.522Z,18.30
2022-08-30T18:16:21.602Z,18.30
2022-08-30T18:18:57.839Z,18.20
2022-08-30T18:21:28.411Z,18.20
2022-08-30T18:23:56.714Z,18.20
2022-08-30T18:26:26.402Z,18.00
2022-08-30T18:28:55.717Z,18.80
2022-08-30T18:31:23.880Z,17.90
2022-08-30T18:33:52.588Z,17.80
2022-08-30T18:36:20.802Z,17.70
2022-08-30T18:38:49.744Z,17.50
2022-08-30T18:41:17.643Z,17.40
2022-08-30T18:43:45.664Z,17.40
2022-08-30T18:46:15.919Z,17.30
2022-08-30T18:48:46.684Z,17.30
2022-08-30T18:51:19.664Z,17.30
2022-08-30T18:53:48.783Z,17.20
2022-08-30T18:56:17.672Z,17.20
2022-08-30T18:58:47.658Z,17.10
2022-08-30T19:01:19.508Z,17.10
2022-08-30T19:03:51.287Z,17.10
2022-08-30T19:06:20.072Z,17.00
2022-08-30T19:08:49.207Z,17.00
2022-08-30T19:11:20.407Z,16.90
2022-08-30T19:13:52.284Z,16.90
2022-08-30T19:16:22.572Z,16.90
2022-08-30T19:18:58.073Z,16.80
2022-08-30T19:21:26.182Z,16.70
2022-08-30T19:23:55.207Z,16.60
2022-08-30T19:26:23.962Z,16.50
2022-08-30T19:28:58.064Z,16.40
2022-08-30T19:31:32.501Z,16.40
2022-08-30T19:34:06.940Z,16.30
2022-08-30T19:36:34.980Z,16.20
2022-08-30T19:39:05.078Z,16.20
2022-08-30T19:41:34.219Z,16.10
2022-08-30T19:44:03.755Z,16.00
2022-08-30T19:46:32.471Z,15.90
2022-08-30T19:49:04.160Z,16.30
2022-08-30T19:51:31.959Z,15.70
2022-08-30T19:54:09.500Z,15.60
2022-08-30T19:56:38.002Z,15.50
2022-08-30T19:59:07.133Z,15.40
2022-08-30T20:01:35.624Z,15.40
2022-08-30T20:04:05.502Z,15.30
2022-08-30T20:06:36.142Z,15.20
2022-08-30T20:09:05.393Z,15.20
2022-08-30T20:11:39.751Z,15.10
2022-08-30T20:14:07.921Z,15.10
2022-08-30T20:16:42.756Z,15.00
2022-08-30T20:19:16.451Z,14.90
2022-08-30T20:22:05.601Z,16.30
2022-08-30T20:24:37.187Z,14.80
2022-08-30T20:27:06.342Z,14.70
2022-08-30T20:29:34.961Z,14.60
2022-08-30T20:32:03.538Z,14.60
2022-08-30T20:34:34.277Z,14.50
2022-08-30T20:37:02.178Z,14.50
2022-08-30T20:39:30.195Z,14.50
2022-08-30T20:41:58.476Z,14.40
2022-08-30T20:44:27.291Z,14.40
2022-08-30T20:46:54.822Z,14.30
2022-08-30T20:49:23.035Z,14.20
2022-08-30T20:51:54.107Z,14.20
2022-08-30T20:54:22.938Z,14.20
2022-08-30T20:56:52.032Z,14.10
2022-08-30T20:59:19.656Z,14.00
2022-08-30T21:01:48.610Z,14.00
2022-08-30T21:04:18.017Z,13.90
2022-08-30T21:06:45.645Z,13.80
2022-08-30T21:09:13.470Z,13.80
2022-08-30T21:11:44.364Z,13.90
2022-08-30T21:14:13.048Z,14.20
2022-08-30T21:19:21.930Z,13.80
2022-08-30T21:21:50.599Z,13.70
2022-08-30T21:24:18.085Z,13.60
2022-08-30T21:26:46.728Z,14.00
2022-08-30T21:29:15.540Z,13.40
2022-08-30T21:31:43.378Z,13.40
2022-08-30T21:34:16.823Z,13.30
2022-08-30T21:36:48.048Z,13.30
2022-08-30T21:39:26.556Z,13.20
2022-08-30T21:41:57.413Z,13.20
2022-08-30T21:44:26.896Z,13.10
2022-08-30T21:46:55.736Z,13.10
2022-08-30T21:49:24.671Z,13.10
2022-08-30T21:51:54.954Z,13.10
2022-08-30T21:54:23.813Z,13.00
2022-08-30T21:56:53.769Z,13.00
2022-08-30T21:59:22.438Z,13.00
2022-08-30T22:01:50.616Z,12.90
2022-08-30T22:04:20.902Z,12.90
2022-08-30T22:06:51.584Z,12.80
2022-08-30T22:09:24.204Z,12.80
2022-08-30T22:11:52.579Z,12.80
2022-08-30T22:14:21.375Z,12.80
2022-08-30T22:16:49.300Z,12.70
2022-08-30T22:19:22.964Z,12.70
2022-08-30T22:21:51.676Z,12.60
2022-08-30T22:24:20.121Z,12.60
2022-08-30T22:26:47.812Z,12.60
2022-08-30T22:29:15.464Z,12.50
2022-08-30T22:31:44.142Z,12.50
2022-08-30T22:34:11.833Z,12.50
2022-08-30T22:36:39.574Z,12.50
2022-08-30T22:39:09.647Z,12.50
2022-08-30T22:41:38.074Z,12.50
2022-08-30T22:44:06.940Z,12.50
2022-08-30T22:46:36.480Z,12.50
2022-08-30T22:49:06.839Z,12.50
2022-08-30T22:51:35.795Z,12.50
2022-08-30T22:54:05.343Z,12.50
2022-08-30T22:56:34.295Z,12.50
2022-08-30T22:59:02.549Z,12.50
2022-08-30T23:01:37.620Z,12.50
2022-08-30T23:04:07.077Z,12.60
2022-08-30T23:06:35.489Z,12.50
2022-08-30T23:09:04.963Z,12.50
2022-08-30T23:11:33.533Z,12.60
2022-08-30T23:14:03.602Z,12.60
2022-08-30T23:16:32.683Z,12.50
2022-08-30T23:19:00.470Z,12.60
2022-08-30T23:21:30.590Z,12.50
2022-08-30T23:24:18.613Z,12.50
2022-08-30T23:27:06.461Z,12.50
2022-08-30T23:29:53.611Z,12.50
2022-08-30T23:32:41.013Z,12.60
2022-08-30T23:35:31.337Z,12.50
2022-08-30T23:38:20.697Z,12.50
2022-08-30T23:41:06.425Z,12.50
2022-08-30T23:46:57.011Z,12.50
2022-08-30T23:49:44.058Z,12.50
2022-08-30T23:52:29.731Z,12.50
2022-08-30T23:55:16.780Z,12.50
2022-08-30T23:58:02.711Z,12.40
